createdAt,value
2024-02-29T00:04:58.015Z,3.36
2024-02-29T00:10:19.923Z,3.30
2024-02-29T00:15:41.983Z,3.31
2024-02-29T00:21:04.355Z,3.25
2024-02-29T00:26:26.200Z,3.08
2024-02-29T00:31:48.181Z,3.05
2024-02-29T00:37:10.580Z,2.92
2024-02-29T00:42:32.627Z,2.80
2024-02-29T00:47:56.108Z,2.74
2024-02-29T00:53:18.145Z,2.77
2024-02-29T00:58:39.953Z,2.73
2024-02-29T01:04:01.830Z,2.72
2024-02-29T01:09:28.167Z,2.71
2024-02-29T01:14:51.468Z,2.62
2024-02-29T01:20:13.438Z,2.59
2024-02-29T01:25:35.277Z,2.53
2024-02-29T01:30:57.132Z,2.35
2024-02-29T01:36:19.294Z,2.24
2024-02-29T01:41:41.149Z,2.24
2024-02-29T01:47:02.972Z,2.18
2024-02-29T01:52:27.843Z,2.16
2024-02-29T01:57:49.864Z,2.17
2024-02-29T02:03:11.764Z,2.04
2024-02-29T02:08:33.651Z,2.02
2024-02-29T02:13:55.918Z,2.00
2024-02-29T02:19:17.882Z,1.93
2024-02-29T02:24:39.793Z,1.87
2024-02-29T02:30:07.900Z,1.80
2024-02-29T02:35:29.702Z,1.79
2024-02-29T02:40:51.557Z,1.70
2024-02-29T02:46:13.434Z,1.66
2024-02-29T02:51:35.389Z,1.65
2024-02-29T02:56:57.185Z,1.63
2024-02-29T03:02:21.757Z,1.61
2024-02-29T03:07:43.639Z,1.70
2024-02-29T03:13:05.589Z,1.60
2024-02-29T03:18:27.460Z,1.53
2024-02-29T03:23:49.287Z,1.44
2024-02-29T03:29:12.991Z,1.39
2024-02-29T03:34:34.785Z,1.40
2024-02-29T03:39:56.664Z,1.42
2024-02-29T03:45:18.591Z,1.42
2024-02-29T03:50:40.634Z,1.39
2024-02-29T03:56:02.475Z,1.31
2024-02-29T04:01:24.792Z,1.27
2024-02-29T04:06:47.296Z,1.36
2024-02-29T04:12:09.310Z,1.39
2024-02-29T04:17:33.597Z,1.40
2024-02-29T04:22:55.557Z,1.31
2024-02-29T04:28:18.698Z,1.29
2024-02-29T04:33:41.802Z,1.25
2024-02-29T04:39:03.779Z,1.20
2024-02-29T04:44:25.672Z,1.18
2024-02-29T04:49:47.578Z,1.24
2024-02-29T04:55:09.910Z,1.21
2024-02-29T05:00:31.780Z,1.16
2024-02-29T05:05:53.709Z,1.09
2024-02-29T05:11:15.601Z,1.04
2024-02-29T05:16:37.519Z,0.97
2024-02-29T05:21:59.345Z,0.96
2024-02-29T05:27:21.217Z,1.03
2024-02-29T05:32:43.146Z,0.98
2024-02-29T05:38:05.321Z,0.92
2024-02-29T05:43:27.071Z,0.97
2024-02-29T05:48:49.081Z,0.99
2024-02-29T05:54:10.919Z,0.90
2024-02-29T05:59:32.781Z,0.85
2024-02-29T06:04:54.625Z,0.89
2024-02-29T06:10:16.734Z,0.93
2024-02-29T06:15:38.556Z,0.97
2024-02-29T06:21:00.535Z,0.97
2024-02-29T06:26:22.464Z,1.04
2024-02-29T06:31:44.381Z,1.01
2024-02-29T06:37:07.818Z,0.97
2024-02-29T06:42:29.652Z,0.94
2024-02-29T06:47:51.859Z,0.99
2024-02-29T06:53:14.157Z,1.09
2024-02-29T06:58:37.122Z,1.05
2024-02-29T07:04:01.962Z,1.11
2024-02-29T07:09:23.762Z,1.18
2024-02-29T07:14:45.658Z,1.31
2024-02-29T07:20:08.973Z,1.47
2024-02-29T07:25:30.828Z,1.47
2024-02-29T07:30:52.633Z,1.63
2024-02-29T07:36:14.439Z,1.77
2024-02-29T07:41:36.200Z,1.88
2024-02-29T07:46:57.922Z,2.10
2024-02-29T07:52:19.990Z,2.31
2024-02-29T07:57:42.373Z,2.53
2024-02-29T08:03:05.874Z,2.74
2024-02-29T08:08:27.734Z,3.00
2024-02-29T08:13:49.494Z,3.30
2024-02-29T08:19:11.419Z,3.54
2024-02-29T08:24:33.281Z,3.88
2024-02-29T08:29:55.182Z,4.14
2024-02-29T08:35:19.041Z,4.16
2024-02-29T08:40:40.982Z,4.39
2024-02-29T08:46:03.860Z,4.71
2024-02-29T08:51:25.673Z,5.18
2024-02-29T08:56:47.481Z,5.48
2024-02-29T09:02:09.325Z,5.98
2024-02-29T09:07:31.289Z,6.25
2024-02-29T09:12:55.353Z,6.77
2024-02-29T09:18:17.171Z,10.43
2024-02-29T09:23:39.200Z,14.21
2024-02-29T09:29:01.386Z,16.65
2024-02-29T09:34:23.479Z,16.79
2024-02-29T09:39:45.433Z,17.01
2024-02-29T09:45:12.939Z,18.36
2024-02-29T09:50:34.859Z,17.72
2024-02-29T09:55:58.034Z,19.66
2024-02-29T10:01:20.129Z,20.97
2024-02-29T10:06:42.096Z,20.20
2024-02-29T10:12:05.369Z,20.93
2024-02-29T10:17:27.586Z,22.61
2024-02-29T10:22:55.473Z,23.64
2024-02-29T10:28:17.478Z,22.09
2024-02-29T10:33:47.577Z,22.46
2024-02-29T10:39:10.122Z,23.22
2024-02-29T10:44:35.887Z,23.92
2024-02-29T10:50:05.855Z,21.26
2024-02-29T10:55:35.216Z,23.66
2024-02-29T11:00:57.141Z,24.40
2024-02-29T11:06:20.297Z,22.67
2024-02-29T11:11:44.047Z,22.17
2024-02-29T11:17:06.579Z,23.24
2024-02-29T11:22:34.008Z,23.73
2024-02-29T11:27:56.176Z,21.33
2024-02-29T11:33:21.434Z,22.40
2024-02-29T11:38:44.863Z,21.51
2024-02-29T11:44:06.765Z,19.00
2024-02-29T11:49:29.216Z,20.55
2024-02-29T11:54:51.145Z,22.36
2024-02-29T12:00:14.037Z,21.67
2024-02-29T12:10:59.679Z,21.65
2024-02-29T12:16:21.782Z,20.63
2024-02-29T12:21:44.682Z,21.16
2024-02-29T12:27:06.604Z,20.89
2024-02-29T12:32:28.574Z,20.06
2024-02-29T12:37:51.989Z,17.38
2024-02-29T12:43:17.301Z,19.77
2024-02-29T12:48:39.315Z,20.34
2024-02-29T12:54:01.133Z,20.67
2024-02-29T12:59:23.053Z,22.43
2024-02-29T13:04:44.935Z,22.64
2024-02-29T13:10:07.501Z,22.39
2024-02-29T13:15:29.413Z,23.08
2024-02-29T13:20:51.838Z,23.20
2024-02-29T13:26:13.776Z,22.43
2024-02-29T13:31:35.745Z,21.94
2024-02-29T13:36:57.701Z,21.62
2024-02-29T13:42:20.085Z,21.26
2024-02-29T13:47:50.740Z,21.25
2024-02-29T13:53:13.007Z,21.43
2024-02-29T13:58:34.863Z,20.50
2024-02-29T14:03:56.737Z,20.76
2024-02-29T14:09:20.004Z,20.41
2024-02-29T14:14:41.919Z,19.34
2024-02-29T14:20:04.105Z,19.05
2024-02-29T14:25:26.021Z,18.30
2024-02-29T14:30:47.877Z,18.06
2024-02-29T14:36:11.422Z,18.40
2024-02-29T14:41:36.240Z,17.60
2024-02-29T14:46:58.684Z,16.15
2024-02-29T14:52:20.761Z,15.18
2024-02-29T14:57:42.674Z,14.96
2024-02-29T15:03:05.439Z,15.37
2024-02-29T15:08:27.368Z,14.85
2024-02-29T15:13:49.533Z,14.96
2024-02-29T15:19:11.389Z,14.81
2024-02-29T15:24:33.167Z,14.90
2024-02-29T15:29:55.027Z,14.33
2024-02-29T15:35:16.867Z,13.95
2024-02-29T15:40:38.776Z,13.96
2024-02-29T15:46:00.702Z,13.86
2024-02-29T15:51:22.626Z,13.66
2024-02-29T15:56:45.331Z,13.59
2024-02-29T16:02:07.773Z,13.52
2024-02-29T16:07:29.693Z,13.28
2024-02-29T16:12:53.536Z,12.06
2024-02-29T16:18:15.424Z,11.79
2024-02-29T16:23:37.331Z,11.63
2024-02-29T16:28:59.253Z,11.34
2024-02-29T16:34:21.196Z,11.22
2024-02-29T16:39:43.161Z,10.94
2024-02-29T16:45:05.848Z,10.74
2024-02-29T16:50:28.624Z,10.52
2024-02-29T16:55:50.428Z,10.15
2024-02-29T17:01:12.324Z,9.90
2024-02-29T17:06:36.409Z,9.92
2024-02-29T17:11:58.740Z,9.69
2024-02-29T17:17:20.663Z,9.57
2024-02-29T17:22:44.808Z,9.37
2024-02-29T17:28:06.785Z,9.24
2024-02-29T17:33:28.653Z,9.09
2024-02-29T17:38:50.443Z,9.01
2024-02-29T17:44:12.365Z,8.87
2024-02-29T17:49:34.230Z,8.84
2024-02-29T17:54:59.117Z,8.66
2024-02-29T18:00:21.179Z,8.50
2024-02-29T18:05:43.942Z,8.47
2024-02-29T18:11:05.804Z,8.42
2024-02-29T18:16:29.383Z,8.33
2024-02-29T18:21:51.839Z,8.21
2024-02-29T18:27:15.381Z,8.15
2024-02-29T18:32:37.244Z,8.13
2024-02-29T18:37:59.158Z,8.16
2024-02-29T18:43:21.406Z,8.01
2024-02-29T18:48:43.534Z,7.89
2024-02-29T18:54:06.583Z,7.90
2024-02-29T18:59:29.408Z,7.85
2024-02-29T19:04:52.693Z,7.71
2024-02-29T19:10:15.377Z,7.68
2024-02-29T19:15:37.336Z,7.59
2024-02-29T19:20:59.206Z,7.51
2024-02-29T19:26:23.941Z,7.27
2024-02-29T19:31:45.817Z,7.21
2024-02-29T19:37:08.419Z,7.18
2024-02-29T19:42:30.240Z,7.14
2024-02-29T19:47:52.687Z,7.12
2024-02-29T19:53:14.953Z,7.02
2024-02-29T19:58:37.022Z,6.97
2024-02-29T20:03:59.274Z,6.85
2024-02-29T20:09:23.072Z,6.81
2024-02-29T20:14:44.962Z,6.75
2024-02-29T20:20:08.140Z,6.67
2024-02-29T20:25:30.609Z,6.68
2024-02-29T20:30:52.855Z,6.60
2024-02-29T20:36:15.684Z,6.42
2024-02-29T20:41:37.501Z,6.17
2024-02-29T20:46:59.335Z,5.95
2024-02-29T20:52:24.560Z,5.85
2024-02-29T20:57:46.497Z,5.59
2024-02-29T21:03:09.031Z,5.46
2024-02-29T21:08:33.383Z,5.31
2024-02-29T21:13:55.323Z,5.24
2024-02-29T21:19:17.389Z,5.20
2024-02-29T21:24:39.381Z,5.23
2024-02-29T21:30:06.470Z,5.35
2024-02-29T21:35:28.949Z,5.22
2024-02-29T21:40:52.150Z,5.17
2024-02-29T21:46:14.055Z,4.97
2024-02-29T21:51:36.235Z,4.97
2024-02-29T21:56:58.057Z,4.95
2024-02-29T22:02:19.954Z,4.88
2024-02-29T22:07:41.741Z,4.67
2024-02-29T22:13:03.741Z,4.70
2024-02-29T22:18:26.105Z,4.72
2024-02-29T22:23:48.012Z,4.60
2024-02-29T22:29:11.597Z,4.58
2024-02-29T22:34:33.503Z,4.54
2024-02-29T22:39:55.493Z,4.45
2024-02-29T22:45:17.799Z,4.41
2024-02-29T22:50:39.697Z,4.40
2024-02-29T22:56:01.864Z,4.36
2024-02-29T23:01:25.067Z,4.31
2024-02-29T23:06:46.984Z,4.26
2024-02-29T23:12:09.023Z,4.34
2024-02-29T23:17:30.846Z,4.28
2024-02-29T23:22:53.893Z,4.20
2024-02-29T23:28:16.352Z,4.33
2024-02-29T23:33:38.273Z,4.26
2024-02-29T23:39:00.168Z,4.27
2024-02-29T23:44:22.489Z,4.38
2024-02-29T23:49:44.371Z,4.44
2024-02-29T23:55:06.721Z,4.59
